KBMG

Monroe County Airport

Bloomington, Indiana, USA
METAR KBMG 230753Z AUTO 14009KT 6SM -RA BR OVC002 07/07 A3022 RMK AO2 SLP237 P0003 T00720072
Observed Flight Rules
Feb-23 @ 07:53 UTC (30 minutes ago) Instrument Flight Rules
Wind Visibility Clouds Conditions
140° at 9 knots 6 miles
  • Overcast at 200' AGL
  • Light Rain
  • Mist
Temperatures Readings Precipitation
Current 7°C / 45°F
Dewpoint 7°C / 45°F
Humidity 100%
Altimeter 30.22" Hg
Pressure 1023.7 hPa
Elevation 257
Current Rain 0.03
METAR KBMG 230753Z AUTO 14009KT 6SM -RA BR OVC002 07/07 A3022 RMK AO2 SLP237 P0003 T00720072
Observed Flight Rules
Feb-23 @ 07:53 UTC
(30 minutes ago)
LIFR
Wind Visibility
140° at 9 knots 6 miles
Clouds
  • Overcast at 200' AGL
Conditions
  • Light Rain
  • Mist
Temperature Dewpoint
7°C / 45°F 7°C / 45°F
Humidity Altimeter Pressure
100% 30.22" Hg 1023.7 hPa
Current Rain
0.03